KGUP/GUP METAR and TAF weather

Enter ICAO airport designator
Station Type Date Time Source
KGUP METAR 2019/06/26 04:53 UTC NOAA

KGUP 260453Z AUTO 25010KT 10SM CLR 22/M09 A3017 RMK AO2 SLP023 T02221094


Station Type Date Time Source
KGUP Decoded METAR 2019/06/26 04:53 UTC NOAA

GALLUP MUNICIPAL AIRPORT, NM, United States (KGUP) 35-31N 108-47W 1971M
Jun 26, 2019 - 12:53 AM EDT / 2019.06.26 0453 UTC
Wind: from the WSW (250 degrees) at 12 MPH (10 KT):0
Visibility: 10 mile(s):0
Sky conditions: clear
Temperature: 72.0 F (22.2 C)
Dew Point: 15.1 F (-9.4 C)
Relative Humidity: 11%
Pressure (altimeter): 30.17 in. Hg (1021 hPa)
ob: KGUP 260453Z AUTO 25010KT 10SM CLR 22/M09 A3017 RMK AO2 SLP023 T02221094
cycle: 5

Station Type Date Time Source
KGUP TAF 2019/06/26 06:30 UTC NOAA

TAF KGUP 260527Z 2606/2706 25008KT P6SM SCT120 SCT250
FM260800 VRB06KT P6SM SCT150 BKN250
FM261700 22015G22KT P6SM FEW100 SCT250
FM262100 23018G28KT P6SM FEW100
FM270200 24008KT P6SM SCT120

Example: see airport list